Anvik Airport Anvik US
ICAO: PANV
IATA:
Category: Medium
Scheduled Services:

Elevation: 291 ft
TransAlt. 18000 ft.

Airport Communications:
AWOS 3:133.55
ANCHORAGE CNTR:135.7
KENAI RDO:122.4
CTAF/UNICOM:122.7

PANV Zoom In..

If you have problems with the map follow the link
https://www.worldairports.se/pages/airport.php?
ICAO=PANV

Runways:

(A) RW 17 length 4000 ft width 75 ft
---- / hdg 172

(B) RW 35 length 4000 ft width 75 ft
---- / hdg 352

Location; PANV
Day. 12 / Time. 22.56 Zulu
* Altimeter: 29.31
* Temperature: -07° c. -19.4°f.
* Wind from: 030° Speed 12 kn.
Dewpoint: -09° c.
Visibility: 10 Statute Miles.
Clouds: Clear (automated report).

PANV 122256Z AUTO 03012KT 10SM CLR M07/M09 A2931 RMK AO2 SLP021 T10671089 FZRANO TSNO


Wind From 030°
Speed 12 kn.

 
 
jpsmedia worldairports.se 2019   terms of use